Terminal Aerodrome Forecast
Issued by NWS

Home | Current Version | Previous Version | Text Only | Print | Product List | Glossary On
Versions: 1 2 3 4 5 6 7 8 9 10 11 12 13 14 15 16 17 18 19 20 21 22 23 24 25 26
000
FTPA31 PHFO 161100
TAFLNY
TAF
PHNY 161120Z 1612/1712 VRB03KT P6SM SCT025
     FM161900 25008KT P6SM BKN020
     FM170000 05015KT P6SM SCT022 BKN035
     FM170800 04008KT P6SM SCT030
      AMD NOT SKED=

USA.gov is the U.S. government's official web portal to all federal, state and local government web resources and services.